sensor_id;sensor_type;location;lat;lon;timestamp;pressure;altitude;pressure_sealevel;temperature;humidity
19736;BME280;32064;49.310;8.646;2023-04-26T00:01:49;100673.38;;;9.59;69.90
19736;BME280;32064;49.310;8.646;2023-04-26T00:04:15;100672.75;;;9.55;71.02
19736;BME280;32064;49.310;8.646;2023-04-26T00:06:40;100674.72;;;9.52;70.22
19736;BME280;32064;49.310;8.646;2023-04-26T00:09:06;100668.97;;;9.45;70.72
19736;BME280;32064;49.310;8.646;2023-04-26T00:11:32;100667.50;;;9.41;70.08
19736;BME280;32064;49.310;8.646;2023-04-26T00:13:58;100668.59;;;9.37;70.85
19736;BME280;32064;49.310;8.646;2023-04-26T00:16:23;100677.88;;;9.28;70.34
19736;BME280;32064;49.310;8.646;2023-04-26T00:18:49;100674.03;;;9.19;70.69
19736;BME280;32064;49.310;8.646;2023-04-26T00:21:15;100684.19;;;9.26;70.81
19736;BME280;32064;49.310;8.646;2023-04-26T00:23:40;100678.00;;;9.27;70.74
19736;BME280;32064;49.310;8.646;2023-04-26T00:26:06;100681.38;;;9.29;69.48
19736;BME280;32064;49.310;8.646;2023-04-26T00:28:31;100684.72;;;9.31;70.09
19736;BME280;32064;49.310;8.646;2023-04-26T00:30:57;100690.47;;;9.23;69.88
19736;BME280;32064;49.310;8.646;2023-04-26T00:33:23;100687.06;;;9.21;70.56
19736;BME280;32064;49.310;8.646;2023-04-26T00:35:48;100682.78;;;9.20;70.54
19736;BME280;32064;49.310;8.646;2023-04-26T00:38:14;100678.53;;;9.17;70.85
19736;BME280;32064;49.310;8.646;2023-04-26T00:40:39;100677.69;;;9.17;70.28
19736;BME280;32064;49.310;8.646;2023-04-26T00:43:05;100674.22;;;9.16;70.50
19736;BME280;32064;49.310;8.646;2023-04-26T00:45:31;100679.00;;;9.10;70.32
19736;BME280;32064;49.310;8.646;2023-04-26T00:47:59;100688.72;;;9.08;70.23
19736;BME280;32064;49.310;8.646;2023-04-26T00:50:25;100674.47;;;8.97;71.11
19736;BME280;32064;49.310;8.646;2023-04-26T00:52:51;100678.31;;;8.92;71.07
19736;BME280;32064;49.310;8.646;2023-04-26T00:55:17;100677.38;;;8.93;70.76
19736;BME280;32064;49.310;8.646;2023-04-26T00:57:44;100679.41;;;8.88;70.37
19736;BME280;32064;49.310;8.646;2023-04-26T01:00:10;100685.59;;;8.87;70.79
19736;BME280;32064;49.310;8.646;2023-04-26T01:02:36;100679.69;;;8.83;70.41
19736;BME280;32064;49.310;8.646;2023-04-26T01:05:01;100681.44;;;8.83;70.44
19736;BME280;32064;49.310;8.646;2023-04-26T01:07:27;100684.25;;;8.80;70.74
19736;BME280;32064;49.310;8.646;2023-04-26T01:09:52;100681.22;;;8.71;71.01
19736;BME280;32064;49.310;8.646;2023-04-26T01:12:19;100675.97;;;8.71;70.41
19736;BME280;32064;49.310;8.646;2023-04-26T01:14:46;100686.81;;;8.65;71.11
19736;BME280;32064;49.310;8.646;2023-04-26T01:17:11;100680.16;;;8.60;70.90
19736;BME280;32064;49.310;8.646;2023-04-26T01:19:48;100694.47;;;8.54;70.58
19736;BME280;32064;49.310;8.646;2023-04-26T01:22:14;100691.66;;;8.57;70.68
19736;BME280;32064;49.310;8.646;2023-04-26T01:24:42;100686.53;;;8.56;70.84
19736;BME280;32064;49.310;8.646;2023-04-26T01:27:08;100697.00;;;8.56;71.12
19736;BME280;32064;49.310;8.646;2023-04-26T01:29:34;100679.44;;;8.42;70.63
19736;BME280;32064;49.310;8.646;2023-04-26T01:32:00;100683.84;;;8.41;70.90
19736;BME280;32064;49.310;8.646;2023-04-26T01:34:25;100676.19;;;8.37;70.81
19736;BME280;32064;49.310;8.646;2023-04-26T01:36:51;100678.81;;;8.37;70.81
19736;BME280;32064;49.310;8.646;2023-04-26T01:39:16;100681.78;;;8.30;70.63
19736;BME280;32064;49.310;8.646;2023-04-26T01:41:42;100679.16;;;8.30;70.74
19736;BME280;32064;49.310;8.646;2023-04-26T01:44:07;100674.88;;;8.29;70.96
19736;BME280;32064;49.310;8.646;2023-04-26T01:46:32;100679.41;;;8.26;70.43
19736;BME280;32064;49.310;8.646;2023-04-26T01:48:58;100680.44;;;8.23;71.06
19736;BME280;32064;49.310;8.646;2023-04-26T01:51:23;100670.88;;;8.22;70.66
19736;BME280;32064;49.310;8.646;2023-04-26T01:53:49;100669.53;;;8.15;70.36
19736;BME280;32064;49.310;8.646;2023-04-26T01:56:14;100669.81;;;8.10;70.29
19736;BME280;32064;49.310;8.646;2023-04-26T01:58:40;100676.88;;;8.08;70.88
19736;BME280;32064;49.310;8.646;2023-04-26T02:01:07;100675.09;;;8.09;70.51
19736;BME280;32064;49.310;8.646;2023-04-26T02:03:34;100668.19;;;8.08;70.26
19736;BME280;32064;49.310;8.646;2023-04-26T02:06:00;100668.44;;;8.03;70.58
19736;BME280;32064;49.310;8.646;2023-04-26T02:08:26;100679.09;;;8.00;70.35
19736;BME280;32064;49.310;8.646;2023-04-26T02:10:51;100683.81;;;7.94;70.89
19736;BME280;32064;49.310;8.646;2023-04-26T02:13:17;100683.91;;;7.92;70.39
19736;BME280;32064;49.310;8.646;2023-04-26T02:15:48;100682.44;;;7.86;70.26
19736;BME280;32064;49.310;8.646;2023-04-26T02:18:14;100680.84;;;7.84;69.80
19736;BME280;32064;49.310;8.646;2023-04-26T02:20:40;100675.88;;;7.79;70.00
19736;BME280;32064;49.310;8.646;2023-04-26T02:23:08;100676.94;;;7.75;69.79
19736;BME280;32064;49.310;8.646;2023-04-26T02:25:33;100675.28;;;7.74;69.73
19736;BME280;32064;49.310;8.646;2023-04-26T02:27:59;100672.72;;;7.73;70.56
19736;BME280;32064;49.310;8.646;2023-04-26T02:30:25;100675.66;;;7.67;69.65
19736;BME280;32064;49.310;8.646;2023-04-26T02:32:52;100676.63;;;7.65;69.45
19736;BME280;32064;49.310;8.646;2023-04-26T02:35:18;100677.56;;;7.64;69.14
19736;BME280;32064;49.310;8.646;2023-04-26T02:37:44;100683.19;;;7.57;69.93
19736;BME280;32064;49.310;8.646;2023-04-26T02:40:15;100681.41;;;7.57;70.39
19736;BME280;32064;49.310;8.646;2023-04-26T02:42:41;100685.69;;;7.58;69.41
19736;BME280;32064;49.310;8.646;2023-04-26T02:45:07;100692.09;;;7.53;69.83
19736;BME280;32064;49.310;8.646;2023-04-26T02:47:32;100683.56;;;7.49;69.51
19736;BME280;32064;49.310;8.646;2023-04-26T02:50:01;100682.69;;;7.50;70.28
19736;BME280;32064;49.310;8.646;2023-04-26T02:52:26;100678.44;;;7.48;69.83
19736;BME280;32064;49.310;8.646;2023-04-26T02:54:52;100674.53;;;7.39;69.62
19736;BME280;32064;49.310;8.646;2023-04-26T02:57:17;100675.84;;;7.30;70.29
19736;BME280;32064;49.310;8.646;2023-04-26T02:59:42;100680.31;;;7.28;69.37
19736;BME280;32064;49.310;8.646;2023-04-26T03:02:08;100678.78;;;7.24;69.83
19736;BME280;32064;49.310;8.646;2023-04-26T03:04:33;100687.34;;;7.28;70.38
19736;BME280;32064;49.310;8.646;2023-04-26T03:07:02;100685.63;;;7.27;69.32
19736;BME280;32064;49.310;8.646;2023-04-26T03:09:27;100681.41;;;7.24;70.16
19736;BME280;32064;49.310;8.646;2023-04-26T03:11:52;100685.28;;;7.17;69.51
19736;BME280;32064;49.310;8.646;2023-04-26T03:14:18;100684.81;;;7.09;69.63
19736;BME280;32064;49.310;8.646;2023-04-26T03:16:43;100682.97;;;7.11;70.58
19736;BME280;32064;49.310;8.646;2023-04-26T03:19:09;100687.59;;;7.06;69.34
19736;BME280;32064;49.310;8.646;2023-04-26T03:21:34;100681.72;;;7.01;70.26
19736;BME280;32064;49.310;8.646;2023-04-26T03:24:03;100686.97;;;7.01;69.30
19736;BME280;32064;49.310;8.646;2023-04-26T03:26:28;100694.81;;;7.01;70.73
19736;BME280;32064;49.310;8.646;2023-04-26T03:28:54;100691.41;;;6.98;69.91
19736;BME280;32064;49.310;8.646;2023-04-26T03:31:19;100689.59;;;7.01;69.87
19736;BME280;32064;49.310;8.646;2023-04-26T03:33:45;100689.66;;;6.99;68.96
19736;BME280;32064;49.310;8.646;2023-04-26T03:36:11;100686.44;;;6.94;70.11
19736;BME280;32064;49.310;8.646;2023-04-26T03:38:37;100695.34;;;6.90;69.09
19736;BME280;32064;49.310;8.646;2023-04-26T03:41:02;100690.13;;;6.90;70.37
19736;BME280;32064;49.310;8.646;2023-04-26T03:43:27;100691.06;;;6.89;69.76
19736;BME280;32064;49.310;8.646;2023-04-26T03:45:53;100691.09;;;6.87;69.32
19736;BME280;32064;49.310;8.646;2023-04-26T03:48:19;100694.81;;;6.83;69.21
19736;BME280;32064;49.310;8.646;2023-04-26T03:50:44;100697.44;;;6.83;69.91
19736;BME280;32064;49.310;8.646;2023-04-26T03:53:10;100699.25;;;6.81;70.15
19736;BME280;32064;49.310;8.646;2023-04-26T03:55:36;100697.59;;;6.80;69.43
19736;BME280;32064;49.310;8.646;2023-04-26T03:58:02;100687.97;;;6.81;70.59
19736;BME280;32064;49.310;8.646;2023-04-26T04:00:41;100688.03;;;6.79;69.35
19736;BME280;32064;49.310;8.646;2023-04-26T04:03:07;100690.81;;;6.76;69.85
19736;BME280;32064;49.310;8.646;2023-04-26T04:05:33;100688.28;;;6.74;70.65
19736;BME280;32064;49.310;8.646;2023-04-26T04:07:59;100691.72;;;6.75;69.22
19736;BME280;32064;49.310;8.646;2023-04-26T04:10:24;100686.28;;;6.80;69.09
19736;BME280;32064;49.310;8.646;2023-04-26T04:12:50;100680.44;;;6.74;70.21
19736;BME280;32064;49.310;8.646;2023-04-26T04:15:18;100685.72;;;6.73;69.82
19736;BME280;32064;49.310;8.646;2023-04-26T04:17:44;100686.44;;;6.77;69.25
19736;BME280;32064;49.310;8.646;2023-04-26T04:20:10;100683.94;;;6.73;69.07
19736;BME280;32064;49.310;8.646;2023-04-26T04:22:36;100685.66;;;6.74;70.52
19736;BME280;32064;49.310;8.646;2023-04-26T04:25:07;100688.28;;;6.74;70.63
19736;BME280;32064;49.310;8.646;2023-04-26T04:27:35;100693.81;;;6.68;70.18
19736;BME280;32064;49.310;8.646;2023-04-26T04:30:02;100695.56;;;6.68;70.61
19736;BME280;32064;49.310;8.646;2023-04-26T04:32:29;100698.06;;;6.71;70.33
19736;BME280;32064;49.310;8.646;2023-04-26T04:34:57;100692.72;;;6.72;68.87
19736;BME280;32064;49.310;8.646;2023-04-26T04:37:22;100702.25;;;6.73;70.41
19736;BME280;32064;49.310;8.646;2023-04-26T04:39:51;100703.88;;;6.76;70.57
19736;BME280;32064;49.310;8.646;2023-04-26T04:42:16;100709.88;;;6.78;69.09
19736;BME280;32064;49.310;8.646;2023-04-26T04:44:42;100703.03;;;6.75;69.87
19736;BME280;32064;49.310;8.646;2023-04-26T04:47:07;100714.13;;;6.81;69.38
19736;BME280;32064;49.310;8.646;2023-04-26T04:49:33;100711.44;;;6.82;70.94
19736;BME280;32064;49.310;8.646;2023-04-26T04:51:58;100715.59;;;6.86;70.07
19736;BME280;32064;49.310;8.646;2023-04-26T04:54:24;100724.72;;;6.95;70.29
19736;BME280;32064;49.310;8.646;2023-04-26T04:56:49;100718.41;;;6.99;70.87
19736;BME280;32064;49.310;8.646;2023-04-26T04:59:15;100721.91;;;7.00;70.44
19736;BME280;32064;49.310;8.646;2023-04-26T05:01:40;100717.19;;;7.06;70.44
19736;BME280;32064;49.310;8.646;2023-04-26T05:04:06;100729.97;;;7.12;71.07
19736;BME280;32064;49.310;8.646;2023-04-26T05:06:31;100729.66;;;7.18;70.56
19736;BME280;32064;49.310;8.646;2023-04-26T05:08:57;100735.13;;;7.31;70.94
19736;BME280;32064;49.310;8.646;2023-04-26T05:11:23;100731.25;;;7.38;70.85
19736;BME280;32064;49.310;8.646;2023-04-26T05:13:49;100732.78;;;7.42;71.88
19736;BME280;32064;49.310;8.646;2023-04-26T05:16:15;100735.25;;;7.46;71.18
19736;BME280;32064;49.310;8.646;2023-04-26T05:18:41;100744.56;;;7.51;72.14
19736;BME280;32064;49.310;8.646;2023-04-26T05:21:07;100745.69;;;7.63;72.00
19736;BME280;32064;49.310;8.646;2023-04-26T05:23:32;100748.75;;;7.71;71.66
19736;BME280;32064;49.310;8.646;2023-04-26T05:26:04;100741.34;;;7.79;71.81
19736;BME280;32064;49.310;8.646;2023-04-26T05:28:30;100746.31;;;7.84;71.00
19736;BME280;32064;49.310;8.646;2023-04-26T05:30:56;100748.63;;;7.90;71.35
19736;BME280;32064;49.310;8.646;2023-04-26T05:33:21;100752.78;;;7.94;71.07
19736;BME280;32064;49.310;8.646;2023-04-26T05:35:47;100757.16;;;7.94;70.90
19736;BME280;32064;49.310;8.646;2023-04-26T05:38:12;100749.81;;;8.00;71.05
19736;BME280;32064;49.310;8.646;2023-04-26T05:40:38;100752.38;;;8.18;70.41
19736;BME280;32064;49.310;8.646;2023-04-26T05:43:03;100751.97;;;8.25;70.41
19736;BME280;32064;49.310;8.646;2023-04-26T05:45:29;100762.38;;;8.27;70.22
19736;BME280;32064;49.310;8.646;2023-04-26T05:47:54;100759.47;;;8.31;70.35
19736;BME280;32064;49.310;8.646;2023-04-26T05:50:20;100762.63;;;8.38;70.11
19736;BME280;32064;49.310;8.646;2023-04-26T05:52:45;100757.69;;;8.32;69.77
19736;BME280;32064;49.310;8.646;2023-04-26T05:55:10;100757.97;;;8.43;69.94
19736;BME280;32064;49.310;8.646;2023-04-26T05:57:37;100757.16;;;8.43;70.25
19736;BME280;32064;49.310;8.646;2023-04-26T06:00:03;100760.38;;;8.48;69.82
19736;BME280;32064;49.310;8.646;2023-04-26T06:02:29;100762.13;;;8.63;69.50
19736;BME280;32064;49.310;8.646;2023-04-26T06:04:55;100769.22;;;8.77;69.78
19736;BME280;32064;49.310;8.646;2023-04-26T06:07:21;100778.44;;;8.84;68.88
19736;BME280;32064;49.310;8.646;2023-04-26T06:09:46;100769.97;;;8.95;69.90
19736;BME280;32064;49.310;8.646;2023-04-26T06:12:11;100765.50;;;9.11;68.64
19736;BME280;32064;49.310;8.646;2023-04-26T06:14:37;100782.41;;;9.21;69.41
19736;BME280;32064;49.310;8.646;2023-04-26T06:17:02;100776.72;;;9.29;69.19
19736;BME280;32064;49.310;8.646;2023-04-26T06:19:28;100777.38;;;9.33;68.58
19736;BME280;32064;49.310;8.646;2023-04-26T06:21:53;100777.50;;;9.46;68.78
19736;BME280;32064;49.310;8.646;2023-04-26T06:24:19;100777.78;;;9.55;67.65
19736;BME280;32064;49.310;8.646;2023-04-26T06:26:45;100785.03;;;9.66;68.89
19736;BME280;32064;49.310;8.646;2023-04-26T06:29:11;100782.63;;;9.77;68.68
19736;BME280;32064;49.310;8.646;2023-04-26T06:31:36;100776.22;;;9.81;67.80
19736;BME280;32064;49.310;8.646;2023-04-26T06:34:02;100780.63;;;9.95;68.83
19736;BME280;32064;49.310;8.646;2023-04-26T06:36:27;100782.31;;;13.89;58.12
19736;BME280;32064;49.310;8.646;2023-04-26T06:38:53;100779.91;;;16.62;52.35
19736;BME280;32064;49.310;8.646;2023-04-26T06:41:19;100779.47;;;18.11;47.82
19736;BME280;32064;49.310;8.646;2023-04-26T06:43:46;100774.78;;;19.14;46.81
19736;BME280;32064;49.310;8.646;2023-04-26T06:46:11;100771.50;;;19.98;45.58
19736;BME280;32064;49.310;8.646;2023-04-26T06:48:37;100771.19;;;20.52;43.89
19736;BME280;32064;49.310;8.646;2023-04-26T06:51:06;100778.03;;;21.21;43.61
19736;BME280;32064;49.310;8.646;2023-04-26T06:53:31;100768.69;;;22.06;41.98
19736;BME280;32064;49.310;8.646;2023-04-26T06:55:57;100769.72;;;22.67;41.44
19736;BME280;32064;49.310;8.646;2023-04-26T06:58:23;100764.47;;;23.43;39.42
19736;BME280;32064;49.310;8.646;2023-04-26T07:00:48;100762.31;;;23.91;39.44
19736;BME280;32064;49.310;8.646;2023-04-26T07:03:14;100760.66;;;24.41;38.72
19736;BME280;32064;49.310;8.646;2023-04-26T07:05:40;100760.69;;;24.77;37.90
19736;BME280;32064;49.310;8.646;2023-04-26T07:08:05;100756.44;;;24.90;37.88
19736;BME280;32064;49.310;8.646;2023-04-26T07:10:31;100757.19;;;25.05;37.53
19736;BME280;32064;49.310;8.646;2023-04-26T07:12:56;100764.31;;;25.62;37.32
19736;BME280;32064;49.310;8.646;2023-04-26T07:15:22;100755.16;;;25.57;37.21
19736;BME280;32064;49.310;8.646;2023-04-26T07:17:47;100758.50;;;26.41;36.20
19736;BME280;32064;49.310;8.646;2023-04-26T07:20:12;100758.44;;;26.22;36.43
19736;BME280;32064;49.310;8.646;2023-04-26T07:22:44;100749.03;;;26.65;35.96
19736;BME280;32064;49.310;8.646;2023-04-26T07:25:09;100751.78;;;27.25;34.55
19736;BME280;32064;49.310;8.646;2023-04-26T07:27:35;100757.41;;;27.44;34.13
19736;BME280;32064;49.310;8.646;2023-04-26T07:30:00;100757.50;;;28.09;33.38
19736;BME280;32064;49.310;8.646;2023-04-26T07:32:26;100750.09;;;25.47;35.47
19736;BME280;32064;49.310;8.646;2023-04-26T07:34:51;100756.72;;;26.14;34.15
19736;BME280;32064;49.310;8.646;2023-04-26T07:37:17;100755.31;;;27.39;32.60
19736;BME280;32064;49.310;8.646;2023-04-26T07:39:43;100752.91;;;28.09;32.22
19736;BME280;32064;49.310;8.646;2023-04-26T07:42:08;100756.22;;;26.38;33.30
19736;BME280;32064;49.310;8.646;2023-04-26T07:44:33;100750.88;;;25.69;35.04
19736;BME280;32064;49.310;8.646;2023-04-26T07:46:59;100749.66;;;23.62;37.72
19736;BME280;32064;49.310;8.646;2023-04-26T07:49:24;100754.41;;;24.92;35.04
19736;BME280;32064;49.310;8.646;2023-04-26T07:51:50;100747.66;;;25.87;33.86
19736;BME280;32064;49.310;8.646;2023-04-26T07:54:16;100754.47;;;26.85;32.00
19736;BME280;32064;49.310;8.646;2023-04-26T07:56:41;100753.63;;;27.51;31.01
19736;BME280;32064;49.310;8.646;2023-04-26T07:59:07;100765.09;;;28.25;31.56
19736;BME280;32064;49.310;8.646;2023-04-26T08:01:32;100757.50;;;28.85;29.98
19736;BME280;32064;49.310;8.646;2023-04-26T08:03:58;100760.47;;;29.09;30.22
19736;BME280;32064;49.310;8.646;2023-04-26T08:06:23;100758.25;;;28.99;30.08
19736;BME280;32064;49.310;8.646;2023-04-26T08:08:49;100760.56;;;28.64;30.52
19736;BME280;32064;49.310;8.646;2023-04-26T08:11:17;100766.88;;;29.40;29.09
19736;BME280;32064;49.310;8.646;2023-04-26T08:13:42;100755.84;;;29.16;28.89
19736;BME280;32064;49.310;8.646;2023-04-26T08:16:08;100761.47;;;29.40;27.86
19736;BME280;32064;49.310;8.646;2023-04-26T08:18:34;100756.66;;;29.60;27.96
19736;BME280;32064;49.310;8.646;2023-04-26T08:20:59;100751.16;;;29.48;28.21
19736;BME280;32064;49.310;8.646;2023-04-26T08:23:25;100759.31;;;29.23;28.67
19736;BME280;32064;49.310;8.646;2023-04-26T08:25:50;100758.44;;;27.09;30.79
19736;BME280;32064;49.310;8.646;2023-04-26T08:28:16;100751.91;;;25.68;32.88
19736;BME280;32064;49.310;8.646;2023-04-26T08:30:41;100749.47;;;25.80;32.76
19736;BME280;32064;49.310;8.646;2023-04-26T08:33:08;100747.72;;;24.87;33.01
19736;BME280;32064;49.310;8.646;2023-04-26T08:35:34;100755.03;;;26.54;31.10
19736;BME280;32064;49.310;8.646;2023-04-26T08:37:59;100751.50;;;26.54;30.68
19736;BME280;32064;49.310;8.646;2023-04-26T08:40:25;100746.16;;;26.87;29.62
19736;BME280;32064;49.310;8.646;2023-04-26T08:42:51;100744.06;;;26.89;29.53
19736;BME280;32064;49.310;8.646;2023-04-26T08:45:21;100741.59;;;26.81;29.23
19736;BME280;32064;49.310;8.646;2023-04-26T08:47:52;100737.69;;;27.23;28.95
19736;BME280;32064;49.310;8.646;2023-04-26T08:50:20;100744.50;;;28.24;28.55
19736;BME280;32064;49.310;8.646;2023-04-26T08:52:47;100737.41;;;28.68;27.68
19736;BME280;32064;49.310;8.646;2023-04-26T08:55:15;100740.16;;;28.93;27.87
19736;BME280;32064;49.310;8.646;2023-04-26T08:57:42;100730.03;;;29.32;27.08
19736;BME280;32064;49.310;8.646;2023-04-26T09:00:10;100729.31;;;29.43;27.08
19736;BME280;32064;49.310;8.646;2023-04-26T09:02:39;100736.00;;;29.41;26.76
19736;BME280;32064;49.310;8.646;2023-04-26T09:05:08;100733.41;;;29.02;27.57
19736;BME280;32064;49.310;8.646;2023-04-26T09:10:05;100731.09;;;29.74;26.05
19736;BME280;32064;49.310;8.646;2023-04-26T09:12:30;100724.09;;;30.04;27.08
19736;BME280;32064;49.310;8.646;2023-04-26T09:14:56;100729.50;;;30.22;25.91
19736;BME280;32064;49.310;8.646;2023-04-26T09:17:29;100720.06;;;30.25;25.58
19736;BME280;32064;49.310;8.646;2023-04-26T09:19:56;100718.09;;;30.13;27.03
19736;BME280;32064;49.310;8.646;2023-04-26T09:22:31;100711.78;;;30.92;24.95
19736;BME280;32064;49.310;8.646;2023-04-26T09:24:57;100717.91;;;31.22;26.29
19736;BME280;32064;49.310;8.646;2023-04-26T09:27:34;100723.94;;;30.47;25.45
19736;BME280;32064;49.310;8.646;2023-04-26T09:32:55;100716.66;;;26.85;27.19
19736;BME280;32064;49.310;8.646;2023-04-26T09:37:53;100707.84;;;24.98;28.21
19736;BME280;32064;49.310;8.646;2023-04-26T09:40:21;100710.06;;;24.30;29.55
19736;BME280;32064;49.310;8.646;2023-04-26T09:42:56;100711.03;;;23.33;28.89
19736;BME280;32064;49.310;8.646;2023-04-26T09:45:22;100706.25;;;22.82;30.99
19736;BME280;32064;49.310;8.646;2023-04-26T09:47:48;100706.75;;;22.32;30.65
19736;BME280;32064;49.310;8.646;2023-04-26T09:50:24;100711.81;;;21.87;30.88
19736;BME280;32064;49.310;8.646;2023-04-26T09:52:50;100716.81;;;21.26;31.26
19736;BME280;32064;49.310;8.646;2023-04-26T09:55:25;100716.66;;;20.95;31.69
19736;BME280;32064;49.310;8.646;2023-04-26T09:57:51;100719.03;;;21.79;31.44
19736;BME280;32064;49.310;8.646;2023-04-26T10:00:17;100719.56;;;22.45;32.14
19736;BME280;32064;49.310;8.646;2023-04-26T10:02:44;100715.16;;;22.29;31.57
19736;BME280;32064;49.310;8.646;2023-04-26T10:05:10;100714.00;;;23.53;31.14
19736;BME280;32064;49.310;8.646;2023-04-26T10:07:36;100712.28;;;23.75;29.89
19736;BME280;32064;49.310;8.646;2023-04-26T10:10:03;100710.41;;;23.75;30.42
19736;BME280;32064;49.310;8.646;2023-04-26T10:12:29;100713.31;;;23.21;30.65
19736;BME280;32064;49.310;8.646;2023-04-26T10:14:55;100699.41;;;22.57;31.53
19736;BME280;32064;49.310;8.646;2023-04-26T10:17:21;100707.88;;;21.67;31.14
19736;BME280;32064;49.310;8.646;2023-04-26T10:19:49;100694.69;;;21.33;31.87
19736;BME280;32064;49.310;8.646;2023-04-26T10:22:27;100689.84;;;21.28;31.47
19736;BME280;32064;49.310;8.646;2023-04-26T10:24:55;100692.53;;;21.44;32.16
19736;BME280;32064;49.310;8.646;2023-04-26T10:30:09;100690.94;;;21.74;32.44
19736;BME280;32064;49.310;8.646;2023-04-26T10:35:17;100689.28;;;21.65;32.25
19736;BME280;32064;49.310;8.646;2023-04-26T10:40:36;100689.91;;;20.79;33.01
19736;BME280;32064;49.310;8.646;2023-04-26T10:45:44;100688.88;;;21.13;32.69
19736;BME280;32064;49.310;8.646;2023-04-26T10:59:11;100673.03;;;20.78;33.12
19736;BME280;32064;49.310;8.646;2023-04-26T11:01:38;100669.81;;;20.91;33.29
19736;BME280;32064;49.310;8.646;2023-04-26T11:04:07;100675.19;;;20.99;33.26
19736;BME280;32064;49.310;8.646;2023-04-26T11:06:49;100670.97;;;21.21;32.14
19736;BME280;32064;49.310;8.646;2023-04-26T11:09:35;100674.63;;;21.84;31.70
19736;BME280;32064;49.310;8.646;2023-04-26T11:12:11;100641.91;;;22.74;31.29
19736;BME280;32064;49.310;8.646;2023-04-26T11:14:37;100652.31;;;22.31;32.02
19736;BME280;32064;49.310;8.646;2023-04-26T11:17:07;100651.31;;;21.93;32.17
19736;BME280;32064;49.310;8.646;2023-04-26T11:19:33;100649.59;;;21.69;32.40
19736;BME280;32064;49.310;8.646;2023-04-26T11:21:59;100646.47;;;21.57;32.58
19736;BME280;32064;49.310;8.646;2023-04-26T11:24:31;100639.88;;;21.68;32.41
19736;BME280;32064;49.310;8.646;2023-04-26T11:26:57;100633.88;;;21.66;31.33
19736;BME280;32064;49.310;8.646;2023-04-26T11:29:24;100636.47;;;22.13;31.62
19736;BME280;32064;49.310;8.646;2023-04-26T11:31:54;100629.00;;;22.55;31.58
19736;BME280;32064;49.310;8.646;2023-04-26T11:34:40;100618.50;;;22.22;30.22
19736;BME280;32064;49.310;8.646;2023-04-26T11:37:06;100614.47;;;21.64;31.72
19736;BME280;32064;49.310;8.646;2023-04-26T11:39:33;100613.06;;;21.28;32.30
19736;BME280;32064;49.310;8.646;2023-04-26T11:42:09;100624.91;;;21.42;32.13
19736;BME280;32064;49.310;8.646;2023-04-26T11:44:35;100617.28;;;21.70;31.33
19736;BME280;32064;49.310;8.646;2023-04-26T11:47:05;100619.91;;;22.10;31.74
19736;BME280;32064;49.310;8.646;2023-04-26T11:49:32;100607.97;;;22.44;31.36
19736;BME280;32064;49.310;8.646;2023-04-26T11:51:58;100606.84;;;22.99;31.00
19736;BME280;32064;49.310;8.646;2023-04-26T11:54:35;100613.94;;;23.06;30.86
19736;BME280;32064;49.310;8.646;2023-04-26T11:57:15;100607.38;;;23.09;30.35
19736;BME280;32064;49.310;8.646;2023-04-26T11:59:40;100604.53;;;23.11;30.92
19736;BME280;32064;49.310;8.646;2023-04-26T12:02:06;100602.00;;;23.24;31.24
19736;BME280;32064;49.310;8.646;2023-04-26T12:04:32;100608.25;;;23.24;30.59
19736;BME280;32064;49.310;8.646;2023-04-26T12:06:58;100603.03;;;23.52;30.32
19736;BME280;32064;49.310;8.646;2023-04-26T12:09:26;100603.16;;;23.81;29.89
19736;BME280;32064;49.310;8.646;2023-04-26T12:11:59;100605.00;;;23.95;29.32
19736;BME280;32064;49.310;8.646;2023-04-26T12:14:46;100600.53;;;23.51;29.47
19736;BME280;32064;49.310;8.646;2023-04-26T12:17:13;100607.28;;;23.32;29.49
19736;BME280;32064;49.310;8.646;2023-04-26T12:19:39;100598.50;;;23.53;30.11
19736;BME280;32064;49.310;8.646;2023-04-26T12:22:06;100598.13;;;23.56;29.53
19736;BME280;32064;49.310;8.646;2023-04-26T12:24:32;100601.84;;;23.25;29.43
19736;BME280;32064;49.310;8.646;2023-04-26T12:27:00;100596.63;;;22.94;29.69
19736;BME280;32064;49.310;8.646;2023-04-26T12:29:29;100592.13;;;22.72;30.47
19736;BME280;32064;49.310;8.646;2023-04-26T12:31:56;100597.31;;;22.35;31.07
19736;BME280;32064;49.310;8.646;2023-04-26T12:34:22;100593.50;;;21.98;31.36
19736;BME280;32064;49.310;8.646;2023-04-26T12:36:48;100594.09;;;21.55;31.11
19736;BME280;32064;49.310;8.646;2023-04-26T12:39:13;100603.13;;;20.98;31.09
19736;BME280;32064;49.310;8.646;2023-04-26T12:41:40;100600.13;;;20.84;32.30
19736;BME280;32064;49.310;8.646;2023-04-26T12:44:07;100592.09;;;20.84;32.05
19736;BME280;32064;49.310;8.646;2023-04-26T12:46:32;100595.63;;;20.77;32.51
19736;BME280;32064;49.310;8.646;2023-04-26T12:48:58;100597.13;;;20.79;32.50
19736;BME280;32064;49.310;8.646;2023-04-26T12:51:23;100603.47;;;20.46;32.36
19736;BME280;32064;49.310;8.646;2023-04-26T12:53:49;100594.94;;;20.42;33.13
19736;BME280;32064;49.310;8.646;2023-04-26T12:56:15;100591.78;;;20.38;32.36
19736;BME280;32064;49.310;8.646;2023-04-26T12:58:41;100596.59;;;20.51;32.35
19736;BME280;32064;49.310;8.646;2023-04-26T13:01:06;100594.47;;;20.47;31.64
19736;BME280;32064;49.310;8.646;2023-04-26T13:03:32;100597.28;;;20.45;31.63
19736;BME280;32064;49.310;8.646;2023-04-26T13:05:57;100591.13;;;20.53;31.33
19736;BME280;32064;49.310;8.646;2023-04-26T13:08:23;100590.78;;;20.48;31.05
19736;BME280;32064;49.310;8.646;2023-04-26T13:10:48;100589.09;;;20.63;32.20
19736;BME280;32064;49.310;8.646;2023-04-26T13:13:14;100581.19;;;21.02;30.93
19736;BME280;32064;49.310;8.646;2023-04-26T13:15:40;100581.25;;;21.42;31.02
19736;BME280;32064;49.310;8.646;2023-04-26T13:18:05;100587.50;;;21.26;31.56
19736;BME280;32064;49.310;8.646;2023-04-26T13:20:33;100586.06;;;20.91;31.32
19736;BME280;32064;49.310;8.646;2023-04-26T13:22:59;100577.41;;;20.39;31.86